sensor_id;sensor_type;location;lat;lon;timestamp;P1;durP1;ratioP1;P2;durP2;ratioP2
72408;SDS011;60402;48.082;11.628;2023-06-22T00:02:27;7.30;;;2.55;;
72408;SDS011;60402;48.082;11.628;2023-06-22T00:05:12;5.30;;;2.28;;
72408;SDS011;60402;48.082;11.628;2023-06-22T00:08:01;4.78;;;2.10;;
72408;SDS011;60402;48.082;11.628;2023-06-22T00:10:48;6.28;;;2.00;;
72408;SDS011;60402;48.082;11.628;2023-06-22T00:13:34;5.95;;;2.40;;
72408;SDS011;60402;48.082;11.628;2023-06-22T00:16:20;9.10;;;2.33;;
72408;SDS011;60402;48.082;11.628;2023-06-22T00:19:05;6.35;;;2.28;;
72408;SDS011;60402;48.082;11.628;2023-06-22T00:21:51;6.40;;;2.53;;
72408;SDS011;60402;48.082;11.628;2023-06-22T00:24:39;7.10;;;2.22;;
72408;SDS011;60402;48.082;11.628;2023-06-22T00:27:25;6.97;;;2.38;;
72408;SDS011;60402;48.082;11.628;2023-06-22T00:30:10;5.85;;;1.80;;
72408;SDS011;60402;48.082;11.628;2023-06-22T00:32:56;7.82;;;2.55;;
72408;SDS011;60402;48.082;11.628;2023-06-22T00:35:43;7.78;;;2.30;;
72408;SDS011;60402;48.082;11.628;2023-06-22T00:38:29;6.82;;;2.63;;
72408;SDS011;60402;48.082;11.628;2023-06-22T00:41:14;8.50;;;2.78;;
72408;SDS011;60402;48.082;11.628;2023-06-22T00:44:00;6.13;;;2.08;;
72408;SDS011;60402;48.082;11.628;2023-06-22T00:46:46;9.10;;;2.70;;
72408;SDS011;60402;48.082;11.628;2023-06-22T00:49:32;10.13;;;2.70;;
72408;SDS011;60402;48.082;11.628;2023-06-22T00:52:21;6.90;;;2.50;;
72408;SDS011;60402;48.082;11.628;2023-06-22T00:57:58;7.53;;;2.33;;
72408;SDS011;60402;48.082;11.628;2023-06-22T01:00:43;8.32;;;2.65;;
72408;SDS011;60402;48.082;11.628;2023-06-22T01:03:29;7.60;;;2.30;;
72408;SDS011;60402;48.082;11.628;2023-06-22T01:06:15;8.30;;;2.58;;
72408;SDS011;60402;48.082;11.628;2023-06-22T01:09:10;8.10;;;2.63;;
72408;SDS011;60402;48.082;11.628;2023-06-22T01:12:04;9.02;;;2.53;;
72408;SDS011;60402;48.082;11.628;2023-06-22T01:14:55;8.73;;;2.70;;
72408;SDS011;60402;48.082;11.628;2023-06-22T01:17:47;8.25;;;2.40;;
72408;SDS011;60402;48.082;11.628;2023-06-22T01:20:34;6.10;;;2.00;;
72408;SDS011;60402;48.082;11.628;2023-06-22T01:29:23;8.15;;;2.75;;
72408;SDS011;60402;48.082;11.628;2023-06-22T01:34:57;9.00;;;2.50;;
72408;SDS011;60402;48.082;11.628;2023-06-22T01:40:31;6.93;;;2.50;;
72408;SDS011;60402;48.082;11.628;2023-06-22T01:43:19;6.55;;;2.35;;
72408;SDS011;60402;48.082;11.628;2023-06-22T01:46:08;8.48;;;3.10;;
72408;SDS011;60402;48.082;11.628;2023-06-22T01:48:54;7.93;;;2.10;;
72408;SDS011;60402;48.082;11.628;2023-06-22T01:51:41;9.98;;;2.67;;
72408;SDS011;60402;48.082;11.628;2023-06-22T01:54:26;8.95;;;2.63;;
72408;SDS011;60402;48.082;11.628;2023-06-22T01:57:12;6.95;;;2.88;;
72408;SDS011;60402;48.082;11.628;2023-06-22T02:00:02;7.47;;;2.25;;
72408;SDS011;60402;48.082;11.628;2023-06-22T02:02:59;7.55;;;2.38;;
72408;SDS011;60402;48.082;11.628;2023-06-22T02:05:52;8.65;;;3.10;;
72408;SDS011;60402;48.082;11.628;2023-06-22T02:08:51;8.00;;;2.17;;
72408;SDS011;60402;48.082;11.628;2023-06-22T02:11:42;6.15;;;2.17;;
72408;SDS011;60402;48.082;11.628;2023-06-22T02:14:30;6.38;;;2.35;;
72408;SDS011;60402;48.082;11.628;2023-06-22T02:17:17;5.95;;;2.58;;
72408;SDS011;60402;48.082;11.628;2023-06-22T02:20:03;9.50;;;2.95;;
72408;SDS011;60402;48.082;11.628;2023-06-22T02:22:54;9.27;;;3.38;;
72408;SDS011;60402;48.082;11.628;2023-06-22T02:25:39;11.88;;;3.83;;
72408;SDS011;60402;48.082;11.628;2023-06-22T02:28:25;6.57;;;2.80;;
72408;SDS011;60402;48.082;11.628;2023-06-22T02:31:10;7.28;;;2.50;;
72408;SDS011;60402;48.082;11.628;2023-06-22T02:33:59;9.43;;;3.05;;
72408;SDS011;60402;48.082;11.628;2023-06-22T02:36:45;8.07;;;3.30;;
72408;SDS011;60402;48.082;11.628;2023-06-22T02:39:36;9.90;;;3.33;;
72408;SDS011;60402;48.082;11.628;2023-06-22T02:42:22;7.85;;;3.10;;
72408;SDS011;60402;48.082;11.628;2023-06-22T02:45:08;7.15;;;2.80;;
72408;SDS011;60402;48.082;11.628;2023-06-22T02:47:54;8.85;;;2.78;;
72408;SDS011;60402;48.082;11.628;2023-06-22T02:50:40;8.55;;;3.13;;
72408;SDS011;60402;48.082;11.628;2023-06-22T02:53:26;7.25;;;3.10;;
72408;SDS011;60402;48.082;11.628;2023-06-22T02:56:12;8.43;;;2.85;;
72408;SDS011;60402;48.082;11.628;2023-06-22T02:58:58;6.50;;;2.65;;
72408;SDS011;60402;48.082;11.628;2023-06-22T03:01:46;8.57;;;4.15;;
72408;SDS011;60402;48.082;11.628;2023-06-22T03:04:32;6.45;;;3.05;;
72408;SDS011;60402;48.082;11.628;2023-06-22T03:07:18;7.78;;;3.17;;
72408;SDS011;60402;48.082;11.628;2023-06-22T03:10:03;8.40;;;3.50;;
72408;SDS011;60402;48.082;11.628;2023-06-22T03:12:49;9.57;;;3.85;;
72408;SDS011;60402;48.082;11.628;2023-06-22T03:15:35;7.82;;;3.38;;
72408;SDS011;60402;48.082;11.628;2023-06-22T03:18:21;10.20;;;3.33;;
72408;SDS011;60402;48.082;11.628;2023-06-22T03:21:07;8.82;;;3.63;;
72408;SDS011;60402;48.082;11.628;2023-06-22T03:23:53;9.82;;;3.60;;
72408;SDS011;60402;48.082;11.628;2023-06-22T03:26:39;9.57;;;4.10;;
72408;SDS011;60402;48.082;11.628;2023-06-22T03:29:24;9.63;;;4.18;;
72408;SDS011;60402;48.082;11.628;2023-06-22T03:32:10;9.65;;;3.95;;
72408;SDS011;60402;48.082;11.628;2023-06-22T03:34:56;9.52;;;3.53;;
72408;SDS011;60402;48.082;11.628;2023-06-22T03:40:29;8.30;;;3.38;;
72408;SDS011;60402;48.082;11.628;2023-06-22T03:43:15;8.43;;;3.30;;
72408;SDS011;60402;48.082;11.628;2023-06-22T03:46:00;8.40;;;3.80;;
72408;SDS011;60402;48.082;11.628;2023-06-22T03:48:46;9.07;;;3.65;;
72408;SDS011;60402;48.082;11.628;2023-06-22T03:51:32;9.07;;;4.15;;
72408;SDS011;60402;48.082;11.628;2023-06-22T03:54:18;8.32;;;3.67;;
72408;SDS011;60402;48.082;11.628;2023-06-22T03:57:04;10.00;;;3.47;;
72408;SDS011;60402;48.082;11.628;2023-06-22T03:59:49;10.05;;;3.70;;
72408;SDS011;60402;48.082;11.628;2023-06-22T04:02:35;10.15;;;3.63;;
72408;SDS011;60402;48.082;11.628;2023-06-22T04:05:21;10.40;;;5.10;;
72408;SDS011;60402;48.082;11.628;2023-06-22T04:08:07;10.98;;;3.95;;
72408;SDS011;60402;48.082;11.628;2023-06-22T04:10:53;10.57;;;4.25;;
72408;SDS011;60402;48.082;11.628;2023-06-22T04:13:38;11.50;;;4.30;;
72408;SDS011;60402;48.082;11.628;2023-06-22T04:16:24;11.30;;;3.90;;
72408;SDS011;60402;48.082;11.628;2023-06-22T04:19:10;12.65;;;3.97;;
72408;SDS011;60402;48.082;11.628;2023-06-22T04:22:01;8.65;;;3.88;;
72408;SDS011;60402;48.082;11.628;2023-06-22T04:24:47;10.60;;;4.18;;
72408;SDS011;60402;48.082;11.628;2023-06-22T04:27:32;8.80;;;4.03;;
72408;SDS011;60402;48.082;11.628;2023-06-22T04:30:24;9.90;;;4.50;;
72408;SDS011;60402;48.082;11.628;2023-06-22T04:33:10;10.40;;;5.03;;
72408;SDS011;60402;48.082;11.628;2023-06-22T04:35:56;12.38;;;5.20;;
72408;SDS011;60402;48.082;11.628;2023-06-22T04:38:42;12.48;;;4.65;;
72408;SDS011;60402;48.082;11.628;2023-06-22T04:41:29;10.85;;;5.10;;
72408;SDS011;60402;48.082;11.628;2023-06-22T04:44:16;11.13;;;4.30;;
72408;SDS011;60402;48.082;11.628;2023-06-22T04:47:09;12.93;;;5.32;;
72408;SDS011;60402;48.082;11.628;2023-06-22T04:49:55;12.98;;;5.05;;
72408;SDS011;60402;48.082;11.628;2023-06-22T04:52:40;11.45;;;5.03;;
72408;SDS011;60402;48.082;11.628;2023-06-22T04:55:26;12.15;;;5.10;;
72408;SDS011;60402;48.082;11.628;2023-06-22T04:58:12;12.68;;;5.18;;
72408;SDS011;60402;48.082;11.628;2023-06-22T05:00:58;10.85;;;4.50;;
72408;SDS011;60402;48.082;11.628;2023-06-22T05:03:43;10.32;;;4.55;;
72408;SDS011;60402;48.082;11.628;2023-06-22T05:06:29;12.82;;;4.82;;
72408;SDS011;60402;48.082;11.628;2023-06-22T05:09:15;13.18;;;4.70;;
72408;SDS011;60402;48.082;11.628;2023-06-22T05:12:02;12.93;;;5.28;;
72408;SDS011;60402;48.082;11.628;2023-06-22T05:14:48;12.30;;;5.22;;
72408;SDS011;60402;48.082;11.628;2023-06-22T05:17:34;11.93;;;4.82;;
72408;SDS011;60402;48.082;11.628;2023-06-22T05:20:20;11.82;;;4.82;;
72408;SDS011;60402;48.082;11.628;2023-06-22T05:23:07;10.82;;;5.10;;
72408;SDS011;60402;48.082;11.628;2023-06-22T05:25:52;12.05;;;5.25;;
72408;SDS011;60402;48.082;11.628;2023-06-22T05:28:40;10.13;;;5.30;;
72408;SDS011;60402;48.082;11.628;2023-06-22T05:31:25;12.60;;;5.43;;
72408;SDS011;60402;48.082;11.628;2023-06-22T05:34:19;13.88;;;5.32;;
72408;SDS011;60402;48.082;11.628;2023-06-22T05:37:07;11.25;;;6.25;;
72408;SDS011;60402;48.082;11.628;2023-06-22T05:39:54;12.32;;;5.05;;
72408;SDS011;60402;48.082;11.628;2023-06-22T05:42:40;11.85;;;6.07;;
72408;SDS011;60402;48.082;11.628;2023-06-22T05:45:26;13.25;;;5.18;;
72408;SDS011;60402;48.082;11.628;2023-06-22T05:48:11;11.90;;;5.60;;
72408;SDS011;60402;48.082;11.628;2023-06-22T05:50:57;11.60;;;5.07;;
72408;SDS011;60402;48.082;11.628;2023-06-22T05:53:43;15.52;;;5.57;;
72408;SDS011;60402;48.082;11.628;2023-06-22T05:56:29;11.40;;;5.07;;
72408;SDS011;60402;48.082;11.628;2023-06-22T05:59:15;14.70;;;6.03;;
72408;SDS011;60402;48.082;11.628;2023-06-22T06:02:01;13.45;;;5.20;;
72408;SDS011;60402;48.082;11.628;2023-06-22T06:04:47;9.82;;;5.28;;
72408;SDS011;60402;48.082;11.628;2023-06-22T06:07:32;14.27;;;5.38;;
72408;SDS011;60402;48.082;11.628;2023-06-22T06:10:19;12.82;;;5.32;;
72408;SDS011;60402;48.082;11.628;2023-06-22T06:13:05;13.25;;;5.63;;
72408;SDS011;60402;48.082;11.628;2023-06-22T06:15:50;11.95;;;4.90;;
72408;SDS011;60402;48.082;11.628;2023-06-22T06:18:36;15.10;;;5.60;;
72408;SDS011;60402;48.082;11.628;2023-06-22T06:21:22;13.10;;;4.90;;
72408;SDS011;60402;48.082;11.628;2023-06-22T06:24:08;10.52;;;4.72;;
72408;SDS011;60402;48.082;11.628;2023-06-22T06:26:54;11.07;;;5.30;;
72408;SDS011;60402;48.082;11.628;2023-06-22T06:29:40;11.02;;;5.38;;
72408;SDS011;60402;48.082;11.628;2023-06-22T06:32:26;13.45;;;4.90;;
72408;SDS011;60402;48.082;11.628;2023-06-22T06:35:12;9.93;;;4.85;;
72408;SDS011;60402;48.082;11.628;2023-06-22T06:37:59;12.00;;;5.18;;
72408;SDS011;60402;48.082;11.628;2023-06-22T06:40:44;11.27;;;4.60;;
72408;SDS011;60402;48.082;11.628;2023-06-22T06:43:30;9.70;;;4.90;;
72408;SDS011;60402;48.082;11.628;2023-06-22T06:46:16;12.77;;;5.47;;
72408;SDS011;60402;48.082;11.628;2023-06-22T06:49:02;10.25;;;4.70;;
72408;SDS011;60402;48.082;11.628;2023-06-22T06:51:47;12.25;;;4.60;;
72408;SDS011;60402;48.082;11.628;2023-06-22T06:54:33;12.82;;;4.63;;
72408;SDS011;60402;48.082;11.628;2023-06-22T06:57:19;11.23;;;4.40;;
72408;SDS011;60402;48.082;11.628;2023-06-22T07:00:06;13.55;;;5.10;;
72408;SDS011;60402;48.082;11.628;2023-06-22T07:02:58;12.45;;;5.15;;
72408;SDS011;60402;48.082;11.628;2023-06-22T07:05:44;13.38;;;6.50;;
72408;SDS011;60402;48.082;11.628;2023-06-22T07:08:30;12.93;;;4.97;;
72408;SDS011;60402;48.082;11.628;2023-06-22T07:11:15;13.15;;;4.85;;
72408;SDS011;60402;48.082;11.628;2023-06-22T07:14:01;13.70;;;5.00;;
72408;SDS011;60402;48.082;11.628;2023-06-22T07:16:47;15.20;;;5.18;;
72408;SDS011;60402;48.082;11.628;2023-06-22T07:19:32;11.48;;;4.60;;
72408;SDS011;60402;48.082;11.628;2023-06-22T07:22:18;13.15;;;5.30;;
72408;SDS011;60402;48.082;11.628;2023-06-22T07:25:04;11.60;;;4.72;;
72408;SDS011;60402;48.082;11.628;2023-06-22T07:28:04;11.82;;;4.95;;
72408;SDS011;60402;48.082;11.628;2023-06-22T07:30:50;12.35;;;5.07;;
72408;SDS011;60402;48.082;11.628;2023-06-22T07:33:36;11.48;;;4.40;;
72408;SDS011;60402;48.082;11.628;2023-06-22T07:36:22;11.00;;;4.78;;
72408;SDS011;60402;48.082;11.628;2023-06-22T07:39:07;12.45;;;5.28;;
72408;SDS011;60402;48.082;11.628;2023-06-22T07:41:53;11.52;;;5.47;;
72408;SDS011;60402;48.082;11.628;2023-06-22T07:44:39;15.68;;;5.00;;
72408;SDS011;60402;48.082;11.628;2023-06-22T07:47:24;12.00;;;4.90;;
72408;SDS011;60402;48.082;11.628;2023-06-22T07:50:13;7.90;;;4.15;;
72408;SDS011;60402;48.082;11.628;2023-06-22T07:52:59;9.23;;;4.32;;
72408;SDS011;60402;48.082;11.628;2023-06-22T07:55:44;10.93;;;4.50;;
72408;SDS011;60402;48.082;11.628;2023-06-22T07:58:30;10.68;;;4.38;;
72408;SDS011;60402;48.082;11.628;2023-06-22T08:01:16;9.70;;;4.18;;
72408;SDS011;60402;48.082;11.628;2023-06-22T08:04:04;11.82;;;4.50;;
72408;SDS011;60402;48.082;11.628;2023-06-22T08:06:51;11.43;;;4.20;;
72408;SDS011;60402;48.082;11.628;2023-06-22T08:09:36;12.35;;;5.10;;
72408;SDS011;60402;48.082;11.628;2023-06-22T08:12:22;13.30;;;4.93;;
72408;SDS011;60402;48.082;11.628;2023-06-22T08:15:08;11.80;;;4.53;;
72408;SDS011;60402;48.082;11.628;2023-06-22T08:17:54;12.73;;;5.22;;
72408;SDS011;60402;48.082;11.628;2023-06-22T08:20:40;15.38;;;5.18;;
72408;SDS011;60402;48.082;11.628;2023-06-22T08:23:26;11.35;;;5.15;;
72408;SDS011;60402;48.082;11.628;2023-06-22T08:26:11;11.52;;;4.85;;
72408;SDS011;60402;48.082;11.628;2023-06-22T08:28:57;16.58;;;5.10;;
72408;SDS011;60402;48.082;11.628;2023-06-22T08:31:43;13.93;;;5.10;;
72408;SDS011;60402;48.082;11.628;2023-06-22T08:34:28;11.52;;;4.90;;
72408;SDS011;60402;48.082;11.628;2023-06-22T08:37:14;10.52;;;4.53;;
72408;SDS011;60402;48.082;11.628;2023-06-22T08:40:00;10.00;;;4.47;;
72408;SDS011;60402;48.082;11.628;2023-06-22T08:42:49;13.32;;;5.00;;
72408;SDS011;60402;48.082;11.628;2023-06-22T08:45:35;11.40;;;4.93;;
72408;SDS011;60402;48.082;11.628;2023-06-22T08:48:21;11.77;;;4.85;;
72408;SDS011;60402;48.082;11.628;2023-06-22T08:51:06;14.85;;;4.95;;
72408;SDS011;60402;48.082;11.628;2023-06-22T08:53:52;15.32;;;5.40;;
72408;SDS011;60402;48.082;11.628;2023-06-22T08:56:38;11.05;;;4.72;;
72408;SDS011;60402;48.082;11.628;2023-06-22T08:59:23;13.07;;;5.18;;
72408;SDS011;60402;48.082;11.628;2023-06-22T09:02:09;12.40;;;4.80;;
72408;SDS011;60402;48.082;11.628;2023-06-22T09:04:55;12.25;;;4.85;;
72408;SDS011;60402;48.082;11.628;2023-06-22T09:07:41;14.75;;;4.97;;
72408;SDS011;60402;48.082;11.628;2023-06-22T09:10:27;13.40;;;4.85;;
72408;SDS011;60402;48.082;11.628;2023-06-22T09:13:13;10.60;;;4.97;;
72408;SDS011;60402;48.082;11.628;2023-06-22T09:15:58;11.80;;;5.30;;
72408;SDS011;60402;48.082;11.628;2023-06-22T09:18:47;12.20;;;4.45;;
72408;SDS011;60402;48.082;11.628;2023-06-22T09:21:33;10.38;;;4.50;;
72408;SDS011;60402;48.082;11.628;2023-06-22T09:24:18;13.18;;;4.68;;
72408;SDS011;60402;48.082;11.628;2023-06-22T09:27:04;14.50;;;4.93;;
72408;SDS011;60402;48.082;11.628;2023-06-22T09:29:50;10.05;;;4.47;;
72408;SDS011;60402;48.082;11.628;2023-06-22T09:32:36;12.35;;;5.35;;
72408;SDS011;60402;48.082;11.628;2023-06-22T09:35:21;11.07;;;4.78;;
72408;SDS011;60402;48.082;11.628;2023-06-22T09:38:07;11.55;;;4.38;;
72408;SDS011;60402;48.082;11.628;2023-06-22T09:40:52;13.23;;;4.75;;
72408;SDS011;60402;48.082;11.628;2023-06-22T09:43:38;13.13;;;4.97;;
72408;SDS011;60402;48.082;11.628;2023-06-22T09:46:24;12.82;;;4.72;;
72408;SDS011;60402;48.082;11.628;2023-06-22T09:49:13;13.98;;;5.20;;
72408;SDS011;60402;48.082;11.628;2023-06-22T09:51:58;12.15;;;4.50;;
72408;SDS011;60402;48.082;11.628;2023-06-22T09:54:44;13.45;;;4.45;;
72408;SDS011;60402;48.082;11.628;2023-06-22T09:57:30;12.38;;;5.00;;
72408;SDS011;60402;48.082;11.628;2023-06-22T10:00:16;12.20;;;4.68;;
72408;SDS011;60402;48.082;11.628;2023-06-22T10:03:02;9.93;;;4.47;;
72408;SDS011;60402;48.082;11.628;2023-06-22T10:05:48;13.38;;;4.45;;
72408;SDS011;60402;48.082;11.628;2023-06-22T10:08:34;13.07;;;4.63;;
72408;SDS011;60402;48.082;11.628;2023-06-22T10:11:20;13.75;;;4.57;;
72408;SDS011;60402;48.082;11.628;2023-06-22T10:14:12;13.50;;;4.60;;
72408;SDS011;60402;48.082;11.628;2023-06-22T10:16:57;13.90;;;4.50;;
72408;SDS011;60402;48.082;11.628;2023-06-22T10:19:43;10.38;;;4.25;;
72408;SDS011;60402;48.082;11.628;2023-06-22T10:22:29;15.20;;;4.53;;
72408;SDS011;60402;48.082;11.628;2023-06-22T10:25:14;13.52;;;4.55;;
72408;SDS011;60402;48.082;11.628;2023-06-22T10:28:00;8.98;;;4.20;;
72408;SDS011;60402;48.082;11.628;2023-06-22T10:30:46;14.63;;;4.53;;
72408;SDS011;60402;48.082;11.628;2023-06-22T10:33:31;13.23;;;4.65;;
72408;SDS011;60402;48.082;11.628;2023-06-22T10:36:17;13.07;;;4.43;;
72408;SDS011;60402;48.082;11.628;2023-06-22T10:39:03;13.43;;;4.65;;
72408;SDS011;60402;48.082;11.628;2023-06-22T10:41:48;13.20;;;4.47;;
72408;SDS011;60402;48.082;11.628;2023-06-22T10:44:34;14.90;;;5.15;;
72408;SDS011;60402;48.082;11.628;2023-06-22T10:47:22;13.57;;;4.25;;
72408;SDS011;60402;48.082;11.628;2023-06-22T10:50:08;15.93;;;4.80;;
72408;SDS011;60402;48.082;11.628;2023-06-22T10:52:57;12.80;;;5.13;;
72408;SDS011;60402;48.082;11.628;2023-06-22T10:55:43;11.35;;;4.30;;
72408;SDS011;60402;48.082;11.628;2023-06-22T10:58:29;11.57;;;4.50;;
72408;SDS011;60402;48.082;11.628;2023-06-22T11:01:15;13.15;;;4.60;;
72408;SDS011;60402;48.082;11.628;2023-06-22T11:04:00;13.68;;;4.80;;
72408;SDS011;60402;48.082;11.628;2023-06-22T11:06:47;11.68;;;4.13;;
72408;SDS011;60402;48.082;11.628;2023-06-22T11:09:34;12.40;;;4.68;;
72408;SDS011;60402;48.082;11.628;2023-06-22T11:12:19;11.25;;;4.80;;
72408;SDS011;60402;48.082;11.628;2023-06-22T11:15:05;12.77;;;4.50;;
72408;SDS011;60402;48.082;11.628;2023-06-22T11:17:51;12.88;;;4.85;;
72408;SDS011;60402;48.082;11.628;2023-06-22T11:20:37;14.82;;;4.82;;
72408;SDS011;60402;48.082;11.628;2023-06-22T11:26:11;13.30;;;4.80;;
72408;SDS011;60402;48.082;11.628;2023-06-22T11:28:57;12.10;;;4.50;;
72408;SDS011;60402;48.082;11.628;2023-06-22T11:31:43;14.13;;;5.30;;
72408;SDS011;60402;48.082;11.628;2023-06-22T11:34:28;13.10;;;4.40;;
72408;SDS011;60402;48.082;11.628;2023-06-22T11:37:14;13.02;;;4.38;;
72408;SDS011;60402;48.082;11.628;2023-06-22T11:40:00;12.23;;;4.50;;
72408;SDS011;60402;48.082;11.628;2023-06-22T11:42:47;10.70;;;4.78;;
72408;SDS011;60402;48.082;11.628;2023-06-22T11:45:33;11.25;;;4.88;;
72408;SDS011;60402;48.082;11.628;2023-06-22T11:48:18;11.98;;;4.85;;
72408;SDS011;60402;48.082;11.628;2023-06-22T11:51:04;10.32;;;4.22;;
72408;SDS011;60402;48.082;11.628;2023-06-22T11:53:51;10.50;;;4.45;;
72408;SDS011;60402;48.082;11.628;2023-06-22T11:56:37;14.45;;;4.88;;
72408;SDS011;60402;48.082;11.628;2023-06-22T11:59:22;13.88;;;4.72;;
72408;SDS011;60402;48.082;11.628;2023-06-22T12:02:08;12.80;;;4.90;;
72408;SDS011;60402;48.082;11.628;2023-06-22T12:04:54;12.88;;;5.32;;
72408;SDS011;60402;48.082;11.628;2023-06-22T12:07:43;15.32;;;5.25;;
72408;SDS011;60402;48.082;11.628;2023-06-22T12:10:29;12.38;;;4.40;;
72408;SDS011;60402;48.082;11.628;2023-06-22T12:13:14;12.77;;;4.47;;
72408;SDS011;60402;48.082;11.628;2023-06-22T12:16:00;11.45;;;4.85;;
72408;SDS011;60402;48.082;11.628;2023-06-22T12:18:46;14.88;;;5.22;;
72408;SDS011;60402;48.082;11.628;2023-06-22T12:21:32;12.18;;;4.55;;
72408;SDS011;60402;48.082;11.628;2023-06-22T12:24:17;12.20;;;4.43;;
72408;SDS011;60402;48.082;11.628;2023-06-22T12:27:03;11.98;;;4.55;;
72408;SDS011;60402;48.082;11.628;2023-06-22T12:29:49;12.60;;;4.13;;
72408;SDS011;60402;48.082;11.628;2023-06-22T12:32:35;11.65;;;4.72;;
72408;SDS011;60402;48.082;11.628;2023-06-22T12:35:20;10.68;;;4.82;;
72408;SDS011;60402;48.082;11.628;2023-06-22T12:38:06;10.98;;;4.25;;
72408;SDS011;60402;48.082;11.628;2023-06-22T12:40:53;19.77;;;4.80;;
72408;SDS011;60402;48.082;11.628;2023-06-22T12:43:40;13.63;;;4.88;;
72408;SDS011;60402;48.082;11.628;2023-06-22T12:46:25;12.43;;;4.60;;
72408;SDS011;60402;48.082;11.628;2023-06-22T12:49:11;11.75;;;4.32;;
72408;SDS011;60402;48.082;11.628;2023-06-22T12:51:57;12.23;;;4.60;;
72408;SDS011;60402;48.082;11.628;2023-06-22T12:54:42;12.90;;;4.75;;
72408;SDS011;60402;48.082;11.628;2023-06-22T12:57:28;11.32;;;4.40;;
72408;SDS011;60402;48.082;11.628;2023-06-22T13:00:14;12.82;;;4.45;;
72408;SDS011;60402;48.082;11.628;2023-06-22T13:03:00;10.43;;;4.63;;
72408;SDS011;60402;48.082;11.628;2023-06-22T13:05:46;11.23;;;4.25;;
72408;SDS011;60402;48.082;11.628;2023-06-22T13:08:31;11.10;;;5.00;;
72408;SDS011;60402;48.082;11.628;2023-06-22T13:11:17;12.60;;;5.10;;
72408;SDS011;60402;48.082;11.628;2023-06-22T13:14:03;11.95;;;4.40;;
72408;SDS011;60402;48.082;11.628;2023-06-22T13:16:49;10.98;;;4.15;;
72408;SDS011;60402;48.082;11.628;2023-06-22T13:19:35;14.68;;;4.60;;
72408;SDS011;60402;48.082;11.628;2023-06-22T13:25:17;12.05;;;4.88;;
72408;SDS011;60402;48.082;11.628;2023-06-22T13:28:04;10.73;;;4.70;;
72408;SDS011;60402;48.082;11.628;2023-06-22T13:30:50;12.80;;;5.03;;
72408;SDS011;60402;48.082;11.628;2023-06-22T13:33:35;11.25;;;4.40;;
72408;SDS011;60402;48.082;11.628;2023-06-22T13:36:23;13.85;;;4.05;;
72408;SDS011;60402;48.082;11.628;2023-06-22T13:39:08;12.77;;;4.90;;
72408;SDS011;60402;48.082;11.628;2023-06-22T13:41:54;11.45;;;4.32;;
72408;SDS011;60402;48.082;11.628;2023-06-22T13:44:40;11.98;;;4.07;;
72408;SDS011;60402;48.082;11.628;2023-06-22T13:47:25;10.85;;;4.78;;
72408;SDS011;60402;48.082;11.628;2023-06-22T13:50:11;10.88;;;3.95;;
72408;SDS011;60402;48.082;11.628;2023-06-22T13:52:58;10.57;;;4.45;;
72408;SDS011;60402;48.082;11.628;2023-06-22T13:55:43;10.65;;;4.47;;
72408;SDS011;60402;48.082;11.628;2023-06-22T13:58:29;9.40;;;4.10;;
72408;SDS011;60402;48.082;11.628;2023-06-22T14:01:15;10.73;;;3.95;;
72408;SDS011;60402;48.082;11.628;2023-06-22T14:04:00;13.98;;;4.68;;
72408;SDS011;60402;48.082;11.628;2023-06-22T14:09:33;12.43;;;4.45;;
72408;SDS011;60402;48.082;11.628;2023-06-22T14:12:18;8.95;;;3.97;;
72408;SDS011;60402;48.082;11.628;2023-06-22T14:15:04;13.20;;;4.60;;
72408;SDS011;60402;48.082;11.628;2023-06-22T14:17:50;9.82;;;4.22;;
72408;SDS011;60402;48.082;11.628;2023-06-22T14:20:36;10.48;;;4.35;;
72408;SDS011;60402;48.082;11.628;2023-06-22T14:23:21;11.18;;;4.22;;
72408;SDS011;60402;48.082;11.628;2023-06-22T14:26:07;14.00;;;5.07;;
72408;SDS011;60402;48.082;11.628;2023-06-22T14:28:53;10.40;;;4.40;;
72408;SDS011;60402;48.082;11.628;2023-06-22T14:31:38;13.52;;;5.00;;
72408;SDS011;60402;48.082;11.628;2023-06-22T14:34:24;13.57;;;4.40;;
72408;SDS011;60402;48.082;11.628;2023-06-22T14:37:10;10.15;;;4.10;;
72408;SDS011;60402;48.082;11.628;2023-06-22T14:39:56;10.48;;;4.20;;
72408;SDS011;60402;48.082;11.628;2023-06-22T14:42:41;11.60;;;4.20;;
72408;SDS011;60402;48.082;11.628;2023-06-22T14:45:27;12.02;;;4.30;;
72408;SDS011;60402;48.082;11.628;2023-06-22T14:48:12;12.85;;;3.85;;
72408;SDS011;60402;48.082;11.628;2023-06-22T14:50:58;17.85;;;3.97;;
72408;SDS011;60402;48.082;11.628;2023-06-22T14:53:45;10.82;;;4.47;;
72408;SDS011;60402;48.082;11.628;2023-06-22T14:56:31;9.65;;;4.00;;
72408;SDS011;60402;48.082;11.628;2023-06-22T14:59:17;10.65;;;4.63;;
72408;SDS011;60402;48.082;11.628;2023-06-22T15:02:02;11.63;;;3.80;;
72408;SDS011;60402;48.082;11.628;2023-06-22T15:04:48;13.70;;;4.32;;
72408;SDS011;60402;48.082;11.628;2023-06-22T15:07:34;11.23;;;3.80;;
72408;SDS011;60402;48.082;11.628;2023-06-22T15:10:20;10.18;;;3.90;;
72408;SDS011;60402;48.082;11.628;2023-06-22T15:13:05;14.48;;;3.45;;
72408;SDS011;60402;48.082;11.628;2023-06-22T15:15:52;13.23;;;3.75;;
72408;SDS011;60402;48.082;11.628;2023-06-22T15:18:38;8.43;;;3.88;;
72408;SDS011;60402;48.082;11.628;2023-06-22T15:21:26;14.30;;;4.57;;
72408;SDS011;60402;48.082;11.628;2023-06-22T15:24:11;11.07;;;3.60;;
72408;SDS011;60402;48.082;11.628;2023-06-22T15:26:57;13.88;;;4.40;;
72408;SDS011;60402;48.082;11.628;2023-06-22T15:29:43;8.98;;;3.58;;
72408;SDS011;60402;48.082;11.628;2023-06-22T15:32:29;11.35;;;3.63;;
72408;SDS011;60402;48.082;11.628;2023-06-22T15:35:15;12.38;;;3.92;;
72408;SDS011;60402;48.082;11.628;2023-06-22T15:38:03;13.05;;;3.70;;
72408;SDS011;60402;48.082;11.628;2023-06-22T15:40:49;11.38;;;3.65;;
72408;SDS011;60402;48.082;11.628;2023-06-22T15:43:35;11.68;;;4.18;;
72408;SDS011;60402;48.082;11.628;2023-06-22T15:46:20;12.40;;;3.80;;
72408;SDS011;60402;48.082;11.628;2023-06-22T15:49:06;9.95;;;3.85;;
72408;SDS011;60402;48.082;11.628;2023-06-22T15:51:52;12.68;;;3.70;;
72408;SDS011;60402;48.082;11.628;2023-06-22T15:54:37;11.32;;;3.85;;
72408;SDS011;60402;48.082;11.628;2023-06-22T15:57:24;10.23;;;4.03;;
72408;SDS011;60402;48.082;11.628;2023-06-22T16:00:12;14.13;;;4.03;;
72408;SDS011;60402;48.082;11.628;2023-06-22T16:02:59;13.23;;;3.88;;
72408;SDS011;60402;48.082;11.628;2023-06-22T16:05:45;11.48;;;3.63;;
72408;SDS011;60402;48.082;11.628;2023-06-22T16:08:30;11.57;;;3.80;;
72408;SDS011;60402;48.082;11.628;2023-06-22T16:11:18;14.07;;;3.80;;
72408;SDS011;60402;48.082;11.628;2023-06-22T16:14:04;11.15;;;3.50;;
72408;SDS011;60402;48.082;11.628;2023-06-22T16:16:50;8.45;;;3.50;;
72408;SDS011;60402;48.082;11.628;2023-06-22T16:19:35;11.73;;;3.80;;
72408;SDS011;60402;48.082;11.628;2023-06-22T16:22:21;9.10;;;3.95;;
72408;SDS011;60402;48.082;11.628;2023-06-22T16:25:07;11.82;;;3.88;;
72408;SDS011;60402;48.082;11.628;2023-06-22T16:27:53;11.27;;;3.35;;
72408;SDS011;60402;48.082;11.628;2023-06-22T16:30:39;11.93;;;3.65;;
72408;SDS011;60402;48.082;11.628;2023-06-22T16:33:24;9.05;;;3.38;;
72408;SDS011;60402;48.082;11.628;2023-06-22T16:36:10;10.60;;;3.30;;
72408;SDS011;60402;48.082;11.628;2023-06-22T16:38:56;9.82;;;3.20;;
72408;SDS011;60402;48.082;11.628;2023-06-22T16:41:42;10.45;;;3.17;;
72408;SDS011;60402;48.082;11.628;2023-06-22T16:44:27;13.77;;;4.10;;